createdAt,value
2023-02-24T00:02:03.421Z,144893.31
2023-02-24T00:04:38.398Z,144910.31
2023-02-24T00:07:10.744Z,144827.84
2023-02-24T00:09:39.127Z,144898.16
2023-02-24T00:12:11.351Z,144881.19
2023-02-24T00:14:41.719Z,144875.16
2023-02-24T00:17:10.173Z,144743.03
2023-02-24T00:19:38.292Z,144730.91
2023-02-24T00:22:07.571Z,144881.19
2023-02-24T00:24:35.735Z,144880.00
2023-02-24T00:27:08.243Z,144892.13
2023-02-24T00:29:40.759Z,144881.19
2023-02-24T00:32:12.343Z,144910.31
2023-02-24T00:34:40.615Z,144888.47
2023-02-24T00:37:07.980Z,144878.78
2023-02-24T00:39:36.539Z,144711.53
2023-02-24T00:42:05.949Z,144718.78
2023-02-24T00:44:46.942Z,144858.16
2023-02-24T00:47:17.118Z,144859.34
2023-02-24T00:49:44.721Z,144852.13
2023-02-24T00:52:19.798Z,144864.22
2023-02-24T00:54:49.089Z,144759.97
2023-02-24T00:57:18.392Z,144847.28
2023-02-24T00:59:47.429Z,144744.25
2023-02-24T01:02:15.401Z,144690.94
2023-02-24T01:04:44.946Z,144869.06
2023-02-24T01:07:14.141Z,144847.28
2023-02-24T01:09:41.920Z,144847.28
2023-02-24T01:12:29.805Z,144843.63
2023-02-24T01:14:57.016Z,144837.56
2023-02-24T01:17:25.299Z,144825.44
2023-02-24T01:19:52.810Z,144838.78
2023-02-24T01:22:20.934Z,144878.78
2023-02-24T01:24:48.831Z,144850.88
2023-02-24T01:27:18.724Z,144724.88
2023-02-24T01:29:47.229Z,144824.25
2023-02-24T01:32:22.284Z,144814.50
2023-02-24T01:34:53.023Z,144672.75
2023-02-24T01:37:20.769Z,144835.13
2023-02-24T01:39:49.430Z,144799.97
2023-02-24T01:42:19.890Z,144578.22
2023-02-24T01:44:47.504Z,144796.31
2023-02-24T01:47:18.295Z,144819.41
2023-02-24T01:49:48.220Z,144787.88
2023-02-24T01:52:23.395Z,144789.09
2023-02-24T01:55:13.304Z,144814.50
2023-02-24T01:57:42.512Z,144721.22
2023-02-24T02:00:12.162Z,144832.69
2023-02-24T02:02:46.337Z,144841.19
2023-02-24T02:05:14.805Z,144733.34
2023-02-24T02:07:44.333Z,144791.47
2023-02-24T02:10:13.298Z,144793.94
2023-02-24T02:12:44.346Z,144837.56
2023-02-24T02:15:15.245Z,144854.50
2023-02-24T02:18:20.262Z,144823.00
2023-02-24T02:21:15.167Z,144825.44
2023-02-24T02:23:42.093Z,144803.63
2023-02-24T02:26:49.009Z,144801.22
2023-02-24T02:29:48.260Z,144821.81
2023-02-24T02:32:55.018Z,144812.09
2023-02-24T02:35:48.789Z,144813.31
2023-02-24T02:38:40.427Z,144826.66
2023-02-24T02:41:29.167Z,144795.13
2023-02-24T02:44:19.373Z,144792.72
2023-02-24T02:46:56.502Z,144823.00
2023-02-24T02:49:40.485Z,144818.16
2023-02-24T02:52:17.689Z,144823.00
2023-02-24T02:55:08.208Z,144810.91
2023-02-24T02:57:38.006Z,144775.75
2023-02-24T03:00:13.262Z,144729.72
2023-02-24T03:02:49.454Z,144810.91
2023-02-24T03:05:21.273Z,144795.13
2023-02-24T03:07:54.727Z,144815.75
2023-02-24T03:10:29.806Z,144787.88
2023-02-24T03:13:03.379Z,144787.88
2023-02-24T03:15:32.871Z,144815.75
2023-02-24T03:18:10.084Z,144747.88
2023-02-24T03:20:43.741Z,144821.81
2023-02-24T03:23:18.334Z,144789.09
2023-02-24T03:25:53.976Z,144827.84
2023-02-24T03:28:35.443Z,144658.19
2023-02-24T03:31:18.103Z,144869.06
2023-02-24T03:34:00.548Z,144839.97
2023-02-24T03:36:28.744Z,144830.28
2023-02-24T03:38:58.284Z,144792.72
2023-02-24T03:41:35.913Z,144816.97
2023-02-24T03:44:03.704Z,144852.13
2023-02-24T03:46:32.687Z,144858.16
2023-02-24T03:49:16.961Z,144876.34
2023-02-24T03:52:08.701Z,144839.97
2023-02-24T03:54:59.229Z,144823.00
2023-02-24T03:57:55.166Z,144823.00
2023-02-24T04:01:00.603Z,144829.09
2023-02-24T04:03:45.165Z,144837.56
2023-02-24T04:06:41.821Z,144821.81
2023-02-24T04:09:26.268Z,144839.97
2023-02-24T04:12:09.273Z,144801.22
2023-02-24T04:14:57.190Z,144823.00
2023-02-24T04:17:50.385Z,144801.22
2023-02-24T04:20:22.748Z,144812.09
2023-02-24T04:23:02.686Z,144798.78
2023-02-24T04:25:31.786Z,144667.88
2023-02-24T04:28:02.982Z,144721.22
2023-02-24T04:30:36.050Z,144723.63
2023-02-24T04:33:03.719Z,144697.00
2023-02-24T04:35:30.962Z,144689.72
2023-02-24T04:37:58.165Z,144692.16
2023-02-24T04:40:26.025Z,144665.47
2023-02-24T04:42:54.056Z,144659.38
2023-02-24T04:45:24.376Z,144667.88
2023-02-24T04:47:56.086Z,144694.56
2023-02-24T04:50:25.570Z,144677.59
2023-02-24T04:53:09.311Z,144682.44
2023-02-24T04:55:42.322Z,144568.53
2023-02-24T04:58:11.953Z,144522.53
2023-02-24T05:00:41.711Z,144641.22
2023-02-24T05:03:11.744Z,144500.72
2023-02-24T05:05:39.411Z,144614.56
2023-02-24T05:08:08.842Z,144449.88
2023-02-24T05:10:41.994Z,144619.44
2023-02-24T05:13:13.765Z,144546.78
2023-02-24T05:15:42.895Z,144653.34
2023-02-24T05:18:14.677Z,144626.69
2023-02-24T05:21:04.237Z,144603.66
2023-02-24T05:23:34.092Z,144600.03
2023-02-24T05:26:03.296Z,144581.88
2023-02-24T05:28:33.100Z,144568.53
2023-02-24T05:31:14.878Z,144491.03
2023-02-24T05:33:44.087Z,144500.72
2023-02-24T05:36:20.186Z,144581.88
2023-02-24T05:38:49.408Z,144643.66
2023-02-24T05:41:18.532Z,144644.84
2023-02-24T05:43:53.125Z,144621.84
2023-02-24T05:46:28.199Z,144597.63
2023-02-24T05:48:56.968Z,144529.81
2023-02-24T05:51:24.876Z,144564.94
2023-02-24T05:53:55.610Z,144604.88
2023-02-24T05:56:23.387Z,144590.34
2023-02-24T05:59:01.695Z,144598.84
2023-02-24T06:01:30.847Z,144610.97
2023-02-24T06:04:05.963Z,144592.78
2023-02-24T06:06:41.245Z,144558.84
2023-02-24T06:09:12.545Z,144602.47
2023-02-24T06:11:45.119Z,144592.78
2023-02-24T06:14:12.768Z,144620.63
2023-02-24T06:16:41.668Z,144614.56
2023-02-24T06:19:10.873Z,144610.97
2023-02-24T06:21:41.288Z,144561.31
2023-02-24T06:24:18.322Z,144532.22
2023-02-24T06:26:46.435Z,144583.09
2023-02-24T06:29:15.609Z,144573.38
2023-02-24T06:31:44.077Z,144587.94
2023-02-24T06:34:13.074Z,144573.38
2023-02-24T06:36:40.281Z,144403.91
2023-02-24T06:39:08.316Z,144546.78
2023-02-24T06:41:37.826Z,144541.88
2023-02-24T06:44:05.138Z,144551.63
2023-02-24T06:46:32.194Z,144452.34
2023-02-24T06:48:59.261Z,144527.38
2023-02-24T06:51:30.059Z,144470.50
2023-02-24T06:53:59.309Z,144518.88
2023-02-24T06:56:27.229Z,144521.34
2023-02-24T06:58:56.757Z,144510.44
2023-02-24T07:01:26.669Z,144463.22
2023-02-24T07:04:17.443Z,144475.31
2023-02-24T07:06:52.222Z,144472.88
2023-02-24T07:09:22.058Z,144512.84
2023-02-24T07:11:52.286Z,144524.97
2023-02-24T07:14:22.051Z,144555.22
2023-02-24T07:16:53.995Z,144464.41
2023-02-24T07:19:24.592Z,144463.22
2023-02-24T07:21:59.852Z,144557.66
2023-02-24T07:24:40.738Z,144579.47
2023-02-24T07:27:12.935Z,144604.88
2023-02-24T07:29:39.990Z,144587.94
2023-02-24T07:32:09.284Z,144624.28
2023-02-24T07:34:39.905Z,144587.94
2023-02-24T07:37:08.665Z,144574.63
2023-02-24T07:39:37.508Z,144604.88
2023-02-24T07:42:05.708Z,144454.72
2023-02-24T07:44:44.636Z,144594.00
2023-02-24T07:47:11.777Z,144601.28
2023-02-24T07:49:39.464Z,144520.13
2023-02-24T07:52:08.084Z,144546.78
2023-02-24T07:54:35.642Z,144532.22
2023-02-24T07:57:03.058Z,144612.16
2023-02-24T07:59:34.477Z,144575.81
2023-02-24T08:02:04.571Z,144590.34
2023-02-24T08:04:32.876Z,144551.63
2023-02-24T08:07:03.234Z,144486.22
2023-02-24T08:09:45.393Z,144577.03
2023-02-24T08:12:21.503Z,144595.19
2023-02-24T08:14:51.871Z,144613.34
2023-02-24T08:17:26.120Z,144629.13
2023-02-24T08:20:21.112Z,144497.13
2023-02-24T08:22:52.339Z,144488.66
2023-02-24T08:25:35.145Z,144604.88
2023-02-24T08:28:08.500Z,144638.81
2023-02-24T08:30:48.544Z,144614.56
2023-02-24T08:33:22.361Z,144614.56
2023-02-24T08:36:00.844Z,144585.50
2023-02-24T08:38:40.182Z,144602.47
2023-02-24T08:41:21.044Z,144626.69
2023-02-24T08:43:48.972Z,144653.34
2023-02-24T08:46:26.096Z,144541.88
2023-02-24T08:49:00.548Z,144615.81
2023-02-24T08:51:29.378Z,144621.84
2023-02-24T08:54:02.796Z,144596.38
2023-02-24T08:56:34.612Z,144501.97
2023-02-24T08:59:05.948Z,144621.84
2023-02-24T09:01:39.051Z,144624.28
2023-02-24T09:04:08.326Z,144626.69
2023-02-24T09:06:35.400Z,144614.56
2023-02-24T09:09:19.024Z,144663.03
2023-02-24T09:11:49.575Z,144709.09
2023-02-24T09:14:27.298Z,144718.78
2023-02-24T09:17:03.585Z,144592.78
2023-02-24T09:19:47.462Z,144654.53
2023-02-24T09:22:37.796Z,144663.03
2023-02-24T09:25:17.842Z,144633.97
2023-02-24T09:27:52.347Z,144589.16
2023-02-24T09:30:37.949Z,144541.88
2023-02-24T09:33:06.251Z,144416.00
2023-02-24T09:35:36.776Z,144551.63
2023-02-24T09:38:07.198Z,144474.13
2023-02-24T09:40:40.968Z,144597.63
2023-02-24T09:43:17.577Z,144614.56
2023-02-24T09:45:53.636Z,144630.31
2023-02-24T09:48:30.185Z,144638.81
2023-02-24T09:51:06.421Z,144560.06
2023-02-24T09:53:41.222Z,144566.13
2023-02-24T09:56:36.954Z,144632.72
2023-02-24T09:59:25.973Z,144598.84
2023-02-24T10:02:35.154Z,144612.16
2023-02-24T10:05:38.264Z,144604.88
2023-02-24T10:08:14.205Z,144623.03
2023-02-24T10:11:00.733Z,144500.72
2023-02-24T10:13:32.591Z,144551.63
2023-02-24T10:16:06.974Z,144524.97
2023-02-24T10:19:11.660Z,144491.03
2023-02-24T10:22:00.602Z,144452.34
2023-02-24T10:24:47.276Z,144435.38
2023-02-24T10:27:26.355Z,144531.00
2023-02-24T10:30:10.934Z,144528.63
2023-02-24T10:32:50.005Z,144498.31
2023-02-24T10:35:25.743Z,144521.34
2023-02-24T10:37:53.873Z,144510.44
2023-02-24T10:40:27.403Z,144478.97
2023-02-24T10:43:10.743Z,144494.69
2023-02-24T10:45:45.088Z,144552.81
2023-02-24T10:48:41.510Z,144561.31
2023-02-24T10:51:22.118Z,144521.34
2023-02-24T10:54:13.668Z,144586.72
2023-02-24T10:56:55.070Z,144573.38
2023-02-24T10:59:42.285Z,144579.47
2023-02-24T11:02:34.198Z,144694.56
2023-02-24T11:05:37.486Z,144694.56
2023-02-24T11:08:11.218Z,144709.09
2023-02-24T11:10:53.372Z,144706.69
2023-02-24T11:13:39.393Z,144652.13
2023-02-24T11:16:27.718Z,144621.84
2023-02-24T11:18:55.960Z,144641.22
2023-02-24T11:21:25.718Z,144454.72
2023-02-24T11:24:02.514Z,144613.34
2023-02-24T11:26:37.865Z,144584.31
2023-02-24T11:29:24.157Z,144631.53
2023-02-24T11:32:00.175Z,144640.00
2023-02-24T11:34:49.230Z,144700.59
2023-02-24T11:37:37.811Z,144646.06
2023-02-24T11:40:15.176Z,144636.38
2023-02-24T11:42:53.227Z,144476.53
2023-02-24T11:45:26.217Z,144603.66
2023-02-24T11:47:59.455Z,144597.63
2023-02-24T11:50:33.196Z,144551.63
2023-02-24T11:53:05.930Z,144572.19
2023-02-24T11:55:42.355Z,144590.34
2023-02-24T11:58:27.097Z,144567.34
2023-02-24T12:01:02.881Z,144546.78
2023-02-24T12:03:40.701Z,144409.94
2023-02-24T12:06:16.709Z,144493.50
2023-02-24T12:08:48.100Z,144454.72
2023-02-24T12:11:26.668Z,144405.09
2023-02-24T12:14:14.976Z,144386.94
2023-02-24T12:16:47.822Z,144307.09
2023-02-24T12:19:21.119Z,144430.53
2023-02-24T12:21:53.291Z,144302.25
2023-02-24T12:24:21.310Z,144443.84
2023-02-24T12:27:34.343Z,144393.03
2023-02-24T12:30:23.252Z,144440.22
2023-02-24T12:33:19.242Z,144371.22
2023-02-24T12:36:08.389Z,144396.66
2023-02-24T12:39:00.826Z,144350.63
2023-02-24T12:41:35.747Z,144332.47
2023-02-24T12:44:07.056Z,144292.59
2023-02-24T12:46:37.373Z,144326.44
2023-02-24T12:49:13.533Z,144319.16
2023-02-24T12:52:05.195Z,144336.13
2023-02-24T12:54:48.084Z,144350.63
2023-02-24T12:57:30.197Z,144301.00
2023-02-24T13:00:06.448Z,144316.78
2023-02-24T13:02:53.564Z,144348.25
2023-02-24T13:05:43.207Z,144360.34
2023-02-24T13:08:46.317Z,144338.56
2023-02-24T13:11:25.323Z,144371.22
2023-02-24T13:14:01.856Z,144366.38
2023-02-24T13:16:32.357Z,144339.75
2023-02-24T13:19:25.573Z,144382.09
2023-02-24T13:22:06.760Z,144394.22
2023-02-24T13:24:34.843Z,144418.41
2023-02-24T13:27:29.705Z,144331.28
2023-02-24T13:30:00.781Z,144210.28
2023-02-24T13:32:37.615Z,144181.28
2023-02-24T13:35:13.769Z,144290.16
2023-02-24T13:37:43.254Z,144280.47
2023-02-24T13:40:19.222Z,144249.00
2023-02-24T13:43:01.058Z,144296.19
2023-02-24T13:45:30.390Z,144268.34
2023-02-24T13:48:01.834Z,144276.84
2023-02-24T13:50:29.917Z,144220.00
2023-02-24T13:53:34.340Z,144256.28
2023-02-24T13:56:12.822Z,144251.47
2023-02-24T13:59:02.305Z,144220.00
2023-02-24T14:01:32.528Z,144261.13
2023-02-24T14:04:17.086Z,144264.72
2023-02-24T14:06:52.700Z,144296.19
2023-02-24T14:09:27.077Z,144255.03
2023-02-24T14:11:59.573Z,144228.44
2023-02-24T14:14:26.818Z,144272.00
2023-02-24T14:16:53.838Z,144280.47
2023-02-24T14:19:20.828Z,144282.88
2023-02-24T14:21:51.735Z,144204.25
2023-02-24T14:24:19.085Z,144285.31
2023-02-24T14:26:50.351Z,144239.34
2023-02-24T14:29:25.545Z,144180.06
2023-02-24T14:31:56.668Z,144082.09
2023-02-24T14:34:26.543Z,144210.28
2023-02-24T14:36:56.107Z,144217.56
2023-02-24T14:39:31.210Z,144217.56
2023-02-24T14:42:25.115Z,144240.53
2023-02-24T14:44:55.357Z,144249.00
2023-02-24T14:47:26.015Z,144249.00
2023-02-24T14:49:54.808Z,144232.06
2023-02-24T14:52:32.753Z,144259.88
2023-02-24T14:55:07.252Z,144234.50
2023-02-24T14:57:41.696Z,144253.84
2023-02-24T15:00:21.985Z,144178.88
2023-02-24T15:03:03.598Z,144159.50
2023-02-24T15:05:31.235Z,144228.44
2023-02-24T15:08:00.859Z,144230.88
2023-02-24T15:10:30.730Z,144203.06
2023-02-24T15:13:15.482Z,144112.34
2023-02-24T15:15:42.740Z,144183.72
2023-02-24T15:18:23.843Z,144175.25
2023-02-24T15:21:01.354Z,144094.22
2023-02-24T15:23:34.203Z,144128.03
2023-02-24T15:26:02.176Z,144181.28
2023-02-24T15:28:35.182Z,144183.72
2023-02-24T15:31:16.877Z,144172.81
2023-02-24T15:33:57.867Z,144149.81
2023-02-24T15:36:34.756Z,144130.50
2023-02-24T15:39:10.209Z,144022.88
2023-02-24T15:41:42.788Z,144135.31
2023-02-24T15:44:28.729Z,144146.19
2023-02-24T15:46:58.104Z,144041.00
2023-02-24T15:49:25.610Z,144038.59
2023-02-24T15:51:55.788Z,144126.84
2023-02-24T15:54:43.044Z,144120.81
2023-02-24T15:57:14.615Z,144131.69
2023-02-24T15:59:41.885Z,144099.03
2023-02-24T16:02:14.089Z,144015.63
2023-02-24T16:04:41.341Z,144111.16
2023-02-24T16:07:15.308Z,144136.50
2023-02-24T16:09:43.166Z,144118.38
2023-02-24T16:12:14.987Z,144113.53
2023-02-24T16:14:43.664Z,143963.63
2023-02-24T16:17:41.002Z,144113.53
2023-02-24T16:20:14.213Z,144103.88
2023-02-24T16:22:41.263Z,144128.03
2023-02-24T16:25:09.318Z,144117.19
2023-02-24T16:27:36.496Z,144132.88
2023-02-24T16:30:04.033Z,144022.88
2023-02-24T16:32:31.252Z,144125.66
2023-02-24T16:34:58.414Z,144132.88
2023-02-24T16:37:29.476Z,144109.91
2023-02-24T16:39:59.417Z,144128.03
2023-02-24T16:42:26.491Z,144103.88
2023-02-24T16:44:53.513Z,144108.72
2023-02-24T16:47:24.092Z,144101.44
2023-02-24T16:49:55.237Z,144084.53
2023-02-24T16:52:23.343Z,144111.16
2023-02-24T16:54:50.798Z,144111.16
2023-02-24T16:57:17.837Z,144118.38
2023-02-24T16:59:44.836Z,144102.69
2023-02-24T17:02:24.410Z,144120.81
2023-02-24T17:04:51.492Z,144120.81
2023-02-24T17:07:20.821Z,144076.06
2023-02-24T17:09:47.937Z,143952.78
2023-02-24T17:12:17.163Z,143970.91
2023-02-24T17:14:44.253Z,144080.91
2023-02-24T17:17:11.692Z,144084.53
2023-02-24T17:19:39.298Z,144099.03
2023-02-24T17:22:07.334Z,144082.09
2023-02-24T17:24:34.311Z,144115.97
2023-02-24T17:27:01.286Z,144108.72
2023-02-24T17:29:28.292Z,144117.19
2023-02-24T17:31:55.492Z,144038.59
2023-02-24T17:34:24.117Z,144026.50
2023-02-24T17:36:51.178Z,144091.78
2023-02-24T17:39:18.165Z,144114.75
2023-02-24T17:41:45.521Z,143958.81
2023-02-24T17:44:12.571Z,144001.09
2023-02-24T17:46:39.743Z,144084.53
2023-02-24T17:49:07.058Z,144086.94
2023-02-24T17:51:34.171Z,144120.81
2023-02-24T17:54:01.141Z,144101.44
2023-02-24T17:56:28.131Z,144026.50
2023-02-24T17:58:58.635Z,144089.38
2023-02-24T18:01:26.073Z,144171.59
2023-02-24T18:03:55.587Z,144164.31
2023-02-24T18:06:24.017Z,144108.72
2023-02-24T18:08:51.299Z,144154.66
2023-02-24T18:11:20.108Z,144053.09
2023-02-24T18:13:50.851Z,144130.50
2023-02-24T18:16:18.252Z,144174.00
2023-02-24T18:18:45.323Z,144140.16
2023-02-24T18:21:12.414Z,144128.03
2023-02-24T18:23:40.212Z,144171.59
2023-02-24T18:26:09.374Z,144178.88
2023-02-24T18:28:37.070Z,144135.31
2023-02-24T18:31:19.854Z,144125.66
2023-02-24T18:33:47.078Z,144137.72
2023-02-24T18:36:15.794Z,144145.00
2023-02-24T18:38:43.438Z,144142.59
2023-02-24T18:41:17.016Z,144123.22
2023-02-24T18:43:47.873Z,144077.28
2023-02-24T18:46:16.630Z,144125.66
2023-02-24T18:48:44.601Z,144137.72
2023-02-24T18:51:13.786Z,144155.84
2023-02-24T18:53:40.892Z,144176.44
2023-02-24T18:56:10.405Z,144159.50
2023-02-24T18:58:38.527Z,144145.00
2023-02-24T19:01:20.854Z,144159.50
2023-02-24T19:03:49.882Z,144190.94
2023-02-24T19:06:21.661Z,144045.81
2023-02-24T19:08:54.825Z,144181.28
2023-02-24T19:11:21.900Z,144190.94
2023-02-24T19:13:48.982Z,144043.44
2023-02-24T19:16:18.157Z,144194.56
2023-02-24T19:18:47.872Z,144066.41
2023-02-24T19:21:14.855Z,144209.09
2023-02-24T19:23:41.910Z,144279.28
2023-02-24T19:26:23.622Z,144256.28
2023-02-24T19:28:51.156Z,144273.19
2023-02-24T19:31:21.784Z,144280.47
2023-02-24T19:33:57.411Z,144200.63
2023-02-24T19:36:24.989Z,144262.31
2023-02-24T19:38:52.388Z,144282.88
2023-02-24T19:41:19.781Z,144290.16
2023-02-24T19:43:47.048Z,144308.28
2023-02-24T19:46:15.559Z,144291.34
2023-02-24T19:48:42.819Z,144291.34
2023-02-24T19:51:15.490Z,144246.56
2023-02-24T19:53:42.799Z,144207.88
2023-02-24T19:56:10.001Z,144234.50
2023-02-24T19:58:37.575Z,144256.28
2023-02-24T20:01:13.295Z,144234.50
2023-02-24T20:03:42.356Z,143953.97
2023-02-24T20:06:22.016Z,144232.06
2023-02-24T20:08:49.318Z,144227.22
2023-02-24T20:11:18.188Z,144083.28
2023-02-24T20:13:45.815Z,144241.72
2023-02-24T20:16:15.772Z,144226.03
2023-02-24T20:18:44.544Z,144249.00
2023-02-24T20:21:13.470Z,144232.06
2023-02-24T20:23:41.109Z,144159.50
2023-02-24T20:26:10.748Z,144238.16
2023-02-24T20:28:37.763Z,144239.34
2023-02-24T20:31:10.599Z,144253.84
2023-02-24T20:33:41.741Z,144203.06
2023-02-24T20:36:11.398Z,144060.34
2023-02-24T20:38:39.126Z,144212.72
2023-02-24T20:41:07.210Z,144212.72
2023-02-24T20:43:34.356Z,144090.56
2023-02-24T20:46:13.435Z,144170.41
2023-02-24T20:48:40.777Z,144175.25
2023-02-24T20:51:08.740Z,144182.47
2023-02-24T20:53:54.264Z,144195.78
2023-02-24T20:56:24.152Z,144190.94
2023-02-24T20:58:59.722Z,144170.41
2023-02-24T21:01:27.760Z,144148.63
2023-02-24T21:03:54.844Z,144118.38
2023-02-24T21:06:22.685Z,144123.22
2023-02-24T21:08:50.948Z,143925.00
2023-02-24T21:11:18.034Z,144021.66
2023-02-24T21:13:47.035Z,144067.59
2023-02-24T21:16:15.858Z,144042.19
2023-02-24T21:18:44.918Z,144085.75
2023-02-24T21:21:13.057Z,144118.38
2023-02-24T21:23:40.082Z,144124.44
2023-02-24T21:26:10.781Z,144125.66
2023-02-24T21:28:56.965Z,144093.00
2023-02-24T21:31:27.600Z,144146.19
2023-02-24T21:33:55.610Z,144159.50
2023-02-24T21:36:25.696Z,144164.31
2023-02-24T21:38:53.463Z,144164.31
2023-02-24T21:41:21.344Z,144091.78
2023-02-24T21:43:52.053Z,144172.81
2023-02-24T21:46:19.076Z,144178.88
2023-02-24T21:49:02.276Z,144076.06
2023-02-24T21:51:31.769Z,144180.06
2023-02-24T21:53:59.012Z,144207.88
2023-02-24T21:56:31.954Z,144120.81
2023-02-24T21:59:01.715Z,144236.91
2023-02-24T22:01:34.719Z,144195.78
2023-02-24T22:04:05.376Z,144195.78
2023-02-24T22:06:34.886Z,144170.41
2023-02-24T22:09:03.994Z,144193.38
2023-02-24T22:11:35.042Z,144183.72
2023-02-24T22:14:02.824Z,144198.22
2023-02-24T22:16:30.017Z,144181.28
2023-02-24T22:18:57.067Z,144148.63
2023-02-24T22:21:27.147Z,144174.00
2023-02-24T22:23:56.972Z,144151.03
2023-02-24T22:26:25.314Z,144140.16
2023-02-24T22:28:54.016Z,144176.44
2023-02-24T22:31:24.179Z,144169.16
2023-02-24T22:33:51.779Z,144140.16
2023-02-24T22:36:21.308Z,144135.31
2023-02-24T22:38:48.661Z,144142.59
2023-02-24T22:41:18.853Z,144174.00
2023-02-24T22:43:46.082Z,144164.31
2023-02-24T22:46:20.884Z,144154.66
2023-02-24T22:48:50.175Z,144147.44
2023-02-24T22:51:18.610Z,144142.59
2023-02-24T22:53:48.810Z,144158.28
2023-02-24T22:56:18.693Z,144184.91
2023-02-24T22:58:46.380Z,144171.59
2023-02-24T23:01:23.771Z,144154.66
2023-02-24T23:03:51.253Z,144130.50
2023-02-24T23:06:21.888Z,144164.31
2023-02-24T23:08:50.666Z,144167.97
2023-02-24T23:11:41.245Z,144167.97
2023-02-24T23:14:13.254Z,144157.09
2023-02-24T23:16:42.318Z,144175.25
2023-02-24T23:19:15.969Z,144174.00
2023-02-24T23:21:52.681Z,144174.00
2023-02-24T23:24:21.814Z,144151.03
2023-02-24T23:26:54.577Z,144142.59
2023-02-24T23:29:22.739Z,144120.81
2023-02-24T23:31:50.800Z,144145.00
2023-02-24T23:34:18.120Z,144128.03
2023-02-24T23:36:46.925Z,144004.72
2023-02-24T23:39:16.193Z,144140.16
2023-02-24T23:41:43.360Z,144120.81
2023-02-24T23:44:10.450Z,144140.16
2023-02-24T23:46:37.643Z,144142.59
2023-02-24T23:49:05.192Z,144157.09
2023-02-24T23:51:47.077Z,144145.00
2023-02-24T23:54:15.240Z,144174.00
2023-02-24T23:56:42.235Z,144157.09
2023-02-24T23:59:09.229Z,144164.31
